Terminal Aerodrome Forecast
Issued by NWS Louisville, KY

Home | Current Version | Previous Version | Text Only | Print | Product List | Glossary On
Versions: 1 2 3 4 5 6 7 8 9 10 11 12 13
152
FTUS43 KLMK 060530
TAFBWG
TAF
KBWG 060530Z 0606/0706 VRB03KT P6SM SCT080
     FM061500 35009KT P6SM SCT050
     FM062300 29005KT P6SM SKC=

USA.gov is the U.S. government's official web portal to all federal, state and local government web resources and services.